Latest Weather Observations for Perth Airport

IDW60901

Issued at 10:35 pm WST Thursday 24 July 2014 (issued every 10 minutes, with the page automatically refreshed every 10 minutes)

About weather observations | Map of Perth area stations | Latest observations for Perth area | Other Formats
Station Details ID: 009021 Name: PERTH AIRPORT Lat: -31.93 Lon: 115.98 Height: 15.4 m
Data from the previous 72 hours. | See also: Recent months at Perth Airport
Date/Time
WST
Tmp

°C
App
Tmp
°C
Dew
Point
°C
Rel
Hum
%
Delta-T

°C
Wind Press
QNH
hPa
Press
MSL
hPa
Rain
since
9 am
mm
Dir
 
Spd
km/h
Gust
km/h
Spd
kts
Gust
kts
24/10:30pm 12.4 11.2 11.6 95 0.4 NNE 9 9 5 5 1021.6 - 0.2
24/10:00pm 12.5 11.7 11.6 94 0.5 NNE 7 9 4 5 1021.4 - 0.2
24/09:30pm 12.9 11.4 12.0 94 0.5 NNE 11 13 6 7 1021.5 - 0.2
24/09:00pm 13.0 11.2 12.1 94 0.5 NNE 13 15 7 8 1021.6 1021.6 0.2
24/08:30pm 12.5 10.8 11.2 92 0.7 N 11 17 6 9 1021.9 - 0.0
24/08:00pm 11.4 9.5 10.4 94 0.5 NE 11 13 6 7 1021.6 - 0.0
24/07:30pm 11.1 9.8 9.9 92 0.6 NNW 7 9 4 5 1021.7 - 0.0
24/07:00pm 12.2 10.7 10.5 89 0.9 NW 9 11 5 6 1021.6 - 0.2
24/06:30pm 13.6 12.6 10.9 84 1.4 WNW 7 9 4 5 1021.5 - 0.0
24/06:00pm 14.8 13.4 10.8 77 2.1 WSW 9 11 5 6 1021.2 1021.2 0.2
24/05:30pm 16.2 14.4 10.7 70 2.9 WSW 11 15 6 8 1021.1 - 0.2
24/05:00pm 17.0 14.7 10.6 66 3.4 W 13 17 7 9 1020.8 - 0.2
24/04:30pm 17.8 15.9 10.5 62 3.9 W 11 15 6 8 1020.7 - 0.2
24/04:00pm 18.0 15.9 9.6 58 4.4 W 11 13 6 7 1020.6 - 0.2
24/03:30pm 17.6 15.2 10.0 61 4.0 W 13 20 7 11 1020.8 - 0.2
24/03:00pm 17.8 14.3 8.9 56 4.6 SW 17 22 9 12 1020.6 1020.6 0.2
24/02:30pm 18.4 15.7 9.0 54 4.9 WSW 13 20 7 11 1020.7 - 0.2
24/02:00pm 18.8 15.0 9.0 53 5.1 WSW 19 28 10 15 1020.7 - 0.2
24/01:30pm 18.8 16.3 9.7 55 4.8 SSW 13 19 7 10 1021.0 - 0.2
24/01:00pm 18.1 14.8 9.5 57 4.5 SSW 17 22 9 12 1021.2 - 0.2
24/12:30pm 18.2 15.2 9.4 56 4.6 SW 15 24 8 13 1021.5 - 0.2
24/12:00pm 17.9 15.0 9.5 58 4.4 S 15 20 8 11 1021.8 1021.8 0.0
24/11:30am 17.5 15.0 9.7 60 4.1 S 13 20 7 11 1022.0 - 0.0
24/11:00am 17.0 14.6 10.0 63 3.7 S 13 17 7 9 1022.2 - 0.0
24/10:30am 16.3 13.6 10.2 67 3.2 S 15 19 8 10 1022.5 - 0.0
24/10:00am 15.6 13.6 11.5 76 2.2 SSE 13 20 7 11 1022.4 - 0.0
24/09:30am 14.2 13.0 11.6 84 1.4 SE 9 11 5 6 1022.3 - 0.0
24/09:00am 13.3 13.7 12.6 95 0.4 NE 2 6 1 3 1022.1 1022.1 2.8
24/08:30am 11.7 11.7 11.3 97 0.2 ENE 2 7 1 4 1021.8 - 2.8
24/08:21am 11.4 10.6 11.0 97 0.2 ENE 6 7 3 4 1021.6 - 2.8
24/08:00am 10.3 8.6 9.9 97 0.2 NE 9 9 5 5 1021.4 - 2.8
24/07:45am 9.5 8.2 9.3 99 0.1 ENE 6 7 3 4 1021.4 - 2.8
24/07:30am 9.4 9.2 9.2 99 0.1 CALM 0 - 0 - 1021.1 - 2.8
24/07:00am 10.0 10.1 10.0 100 0.0 CALM 0 - 0 - 1021.0 - 2.8
24/06:54am 10.3 10.4 10.1 99 0.1 CALM 0 - 0 - 1021.0 - 2.8
24/06:44am 10.6 10.7 10.2 97 0.2 CALM 0 6 0 3 1020.9 - 2.8
24/06:30am 10.7 9.5 10.3 97 0.2 ENE 7 9 4 5 1020.6 - 2.8
24/06:00am 11.1 10.1 10.9 99 0.1 ENE 7 9 4 5 1020.4 1020.4 2.8
24/05:43am 11.3 10.3 10.9 97 0.2 E 7 9 4 5 1020.2 - 2.8
24/05:30am 11.3 10.3 10.9 97 0.2 ENE 7 9 4 5 1020.3 - 2.6
24/04:58am 11.3 9.9 10.9 97 0.2 ESE 9 13 5 7 1020.1 - 2.4
24/04:49am 11.2 7.6 10.6 96 0.3 SSE 20 26 11 14 1020.0 - 1.4
24/04:45am 10.9 9.4 10.5 97 0.2 N 9 13 5 7 1019.6 - 1.2
24/04:30am 10.7 9.1 10.3 97 0.2 NNE 9 9 5 5 1019.6 - 1.2
24/04:00am 10.4 8.8 10.2 99 0.1 NNE 9 11 5 6 1019.7 - 1.2
24/03:42am 10.6 8.6 10.2 97 0.2 NNE 11 15 6 8 1019.8 - 1.2
24/03:30am 10.4 8.4 10.0 97 0.2 N 11 19 6 10 1020.1 - 1.0
24/03:17am 10.0 8.6 9.6 97 0.2 NNE 7 9 4 5 1020.2 - 0.6
24/03:00am 10.1 8.4 9.9 99 0.1 NNE 9 11 5 6 1020.3 1020.3 0.6
24/02:30am 10.1 8.4 9.7 97 0.2 NE 9 11 5 6 1020.3 - 0.6
24/02:07am 10.5 9.3 10.3 99 0.1 ENE 7 11 4 6 1020.4 - 0.6
24/01:58am 10.6 9.5 10.0 96 0.3 E 6 11 3 6 1020.8 - 0.4
24/01:30am 9.8 8.0 9.4 97 0.2 NNE 9 13 5 7 1020.2 - 0.4
24/01:00am 9.9 8.1 9.3 96 0.3 NNE 9 11 5 6 1020.2 - 0.4
24/12:30am 10.0 8.2 9.6 97 0.2 NNE 9 11 5 6 1020.4 - 0.4
24/12:00am 10.1 8.4 9.7 97 0.2 NNE 9 13 5 7 1020.7 1020.7 0.4
 
Date/Time
WST
Tmp

°C
App
Tmp
°C
Dew
Point
°C
Rel
Hum
%
Delta-T

°C
Wind Press
QNH
hPa
Press
MSL
hPa
Rain
since
9 am
mm
Dir
 
Spd
km/h
Gust
km/h
Spd
kts
Gust
kts
23/11:30pm 10.0 8.2 9.6 97 0.2 N 9 11 5 6 1021.0 - 0.4
23/11:00pm 10.2 8.5 10.0 99 0.1 NNE 9 11 5 6 1021.1 - 0.4
23/10:30pm 10.4 8.7 10.0 97 0.2 N 9 11 5 6 1021.3 - 0.4
23/10:00pm 10.6 9.0 10.2 97 0.2 NNE 9 13 5 7 1021.2 - 0.4
23/09:30pm 10.2 8.9 9.8 97 0.2 NNE 7 13 4 7 1021.4 - 0.4
23/09:00pm 10.1 8.3 9.5 96 0.3 NNE 9 11 5 6 1021.3 1021.3 0.4
23/08:30pm 10.3 8.6 9.9 97 0.2 NNE 9 13 5 7 1021.4 - 0.4
23/08:00pm 10.1 8.4 9.7 97 0.2 N 9 13 5 7 1021.4 - 0.4
23/07:30pm 9.3 7.2 8.3 93 0.5 N 9 11 5 6 1021.2 - 0.4
23/07:00pm 9.7 8.1 8.9 95 0.4 NW 7 15 4 8 1021.1 - 0.4
23/06:30pm 10.8 9.4 9.6 92 0.6 WNW 7 9 4 5 1020.9 - 0.4
23/06:00pm 12.5 10.7 9.5 82 1.5 W 9 11 5 6 1020.6 1020.6 0.4
23/05:30pm 13.7 11.6 9.6 76 2.1 W 11 17 6 9 1020.7 - 0.4
23/05:00pm 14.5 11.9 9.4 71 2.6 W 13 19 7 10 1020.7 - 0.4
23/04:30pm 15.2 11.9 9.6 69 2.9 WNW 17 22 9 12 1020.5 - 0.4
23/04:00pm 14.9 12.3 9.2 68 2.9 W 13 19 7 10 1020.3 - 0.4
23/03:30pm 15.1 12.9 10.7 75 2.3 W 13 20 7 11 1020.5 - 0.4
23/03:00pm 14.6 11.4 9.8 73 2.5 W 17 24 9 13 1020.4 1020.4 0.4
23/02:30pm 15.2 11.5 9.4 68 3.0 NW 19 22 10 12 1020.5 - 0.4
23/02:00pm 14.7 13.4 9.9 73 2.5 NE 7 11 4 6 1020.5 - 0.4
23/01:30pm 14.2 11.7 9.7 74 2.3 NNE 13 17 7 9 1020.8 - 0.4
23/01:00pm 14.3 11.4 9.6 73 2.4 N 15 22 8 12 1021.2 - 0.4
23/12:30pm 14.0 11.5 9.7 75 2.2 N 13 19 7 10 1021.6 - 0.4
23/12:00pm 13.6 10.6 9.3 75 2.2 NNE 15 20 8 11 1022.1 1022.1 0.4
23/11:30am 13.1 10.7 8.5 73 2.3 NE 11 15 6 8 1022.7 - 0.4
23/11:00am 12.2 9.3 9.6 84 1.3 NNE 15 19 8 10 1022.9 - 0.4
23/10:30am 11.2 8.1 10.2 94 0.5 NNE 17 20 9 11 1023.2 - 0.4
23/10:20am 11.2 8.5 10.2 94 0.5 N 15 20 8 11 1023.5 - 0.4
23/10:00am 10.9 8.0 9.7 92 0.6 N 15 17 8 9 1023.7 - 0.0
23/09:51am 10.8 7.8 9.4 91 0.7 N 15 17 8 9 1023.7 - 0.0
23/09:30am 10.7 8.0 9.1 90 0.8 N 13 15 7 8 1023.4 - 0.0
23/09:00am 9.9 7.6 8.9 93 0.5 ENE 11 13 6 7 1023.0 1023.0 4.2
23/08:30am 9.0 6.1 8.0 93 0.5 ENE 13 17 7 9 1022.9 - 4.2
23/08:00am 8.6 6.1 8.0 96 0.3 ENE 11 13 6 7 1023.0 - 4.2
23/07:30am 8.2 5.9 7.6 96 0.3 N 9 11 5 6 1022.6 - 4.2
23/07:00am 7.9 5.6 7.3 96 0.3 N 9 13 5 7 1022.3 - 4.2
23/06:30am 7.8 5.4 7.2 96 0.3 NE 9 13 5 7 1021.7 - 4.2
23/06:00am 7.7 4.6 7.1 96 0.3 NNE 13 13 7 7 1021.6 1021.6 4.2
23/05:30am 8.1 6.2 7.7 97 0.2 NNE 7 9 4 5 1021.5 - 4.2
23/05:00am 8.6 6.4 8.0 96 0.3 NE 9 11 5 6 1021.3 - 4.2
23/04:30am 8.6 6.1 8.2 97 0.2 NE 11 13 6 7 1021.2 - 4.2
23/04:00am 9.1 7.1 8.7 97 0.2 NE 9 11 5 6 1021.3 - 4.2
23/03:30am 9.3 7.8 9.1 99 0.1 E 7 7 4 4 1021.6 - 4.2
23/03:00am 9.6 8.2 9.4 99 0.1 E 7 9 4 5 1021.7 1021.7 4.2
23/02:30am 9.6 7.7 9.2 97 0.2 ESE 9 11 5 6 1021.7 - 4.2
23/02:00am 9.4 8.5 9.2 99 0.1 W 4 7 2 4 1021.7 - 4.2
23/01:30am 9.9 9.4 9.5 97 0.2 W 2 6 1 3 1021.6 - 4.2
23/01:00am 9.9 8.5 9.5 97 0.2 W 7 9 4 5 1021.6 - 4.2
23/12:30am 9.5 9.4 9.3 99 0.1 CALM 0 0 0 0 1021.4 - 4.2
23/12:00am 9.7 8.2 9.3 97 0.2 WSW 7 11 4 6 1021.5 1021.5 4.2
 
Date/Time
WST
Tmp

°C
App
Tmp
°C
Dew
Point
°C
Rel
Hum
%
Delta-T

°C
Wind Press
QNH
hPa
Press
MSL
hPa
Rain
since
9 am
mm
Dir
 
Spd
km/h
Gust
km/h
Spd
kts
Gust
kts
22/11:30pm 9.7 8.2 9.1 96 0.3 SW 7 13 4 7 1021.5 - 4.2
22/11:00pm 10.1 8.7 9.5 96 0.3 W 7 11 4 6 1021.6 - 4.2
22/10:30pm 11.3 9.6 9.7 90 0.8 S 9 13 5 7 1021.5 - 4.2
22/10:00pm 11.5 9.9 10.1 91 0.7 S 9 13 5 7 1021.5 - 4.2
22/09:30pm 11.6 9.6 10.0 90 0.8 SW 11 15 6 8 1021.4 - 4.2
22/09:00pm 11.4 9.4 10.0 91 0.7 WSW 11 15 6 8 1021.3 1021.3 4.2
22/08:30pm 11.5 8.7 10.1 91 0.7 SW 15 22 8 12 1021.4 - 4.2
22/08:00pm 11.6 9.3 10.4 92 0.6 SSW 13 17 7 9 1021.1 - 4.2
22/07:30pm 11.3 9.3 10.3 94 0.5 SSW 11 15 6 8 1020.6 - 4.2
22/07:00pm 11.6 9.3 10.4 92 0.6 SW 13 17 7 9 1020.3 - 3.8
22/06:30pm 11.7 9.9 10.7 94 0.5 SW 11 17 6 9 1020.0 - 3.8
22/06:00pm 11.5 9.6 10.5 94 0.5 WSW 11 15 6 8 1019.8 1019.8 3.6
22/05:53pm 11.5 8.7 10.1 91 0.7 SW 15 22 8 12 1019.7 - 3.6
22/05:46pm 11.6 8.9 10.2 91 0.7 SSW 15 22 8 12 1019.7 - 3.6
22/05:30pm 11.4 7.7 10.2 92 0.6 SW 20 30 11 16 1019.5 - 3.6
22/05:19pm 12.0 8.6 10.4 90 0.8 SW 19 28 10 15 1019.3 - 3.2
22/05:00pm 12.1 9.5 10.7 91 0.7 SSW 15 19 8 10 1019.1 - 3.2
22/04:40pm 12.3 9.3 10.6 89 0.9 SSW 17 20 9 11 1018.9 - 2.4
22/04:30pm 12.3 7.9 10.4 88 1.0 SSW 24 30 13 16 1018.8 - 2.4
22/04:22pm 12.9 8.8 10.0 82 1.5 S 22 30 12 16 1018.5 - 1.6
22/04:00pm 13.3 8.7 9.8 79 1.8 S 24 30 13 16 1018.2 - 1.6
22/03:30pm 12.4 8.8 10.7 89 0.9 S 20 30 11 16 1018.1 - 1.6
22/03:22pm 14.7 12.8 9.2 69 2.8 S 9 22 5 12 1017.9 - 0.8
22/03:00pm 15.2 13.0 9.4 68 3.0 SW 11 22 6 12 1017.8 1017.8 0.8
22/02:30pm 13.9 11.3 9.2 73 2.4 WSW 13 19 7 10 1017.6 - 0.8
22/02:00pm 13.1 9.8 9.6 79 1.8 SW 17 24 9 13 1017.4 - 0.8
22/01:52pm 13.6 10.3 9.5 76 2.1 WSW 17 22 9 12 1017.5 - 0.6
22/01:30pm 13.4 10.9 9.7 78 1.9 WSW 13 17 7 9 1017.3 - 0.6
22/01:00pm 13.4 10.7 9.0 75 2.2 SSW 13 20 7 11 1017.4 - 0.6
22/12:30pm 13.9 10.8 8.7 71 2.6 SSW 15 20 8 11 1017.5 - 0.4
22/12:00pm 13.1 10.7 8.7 74 2.2 W 11 15 6 8 1017.9 1017.9 0.4
22/11:30am 12.9 9.8 8.9 76 2.0 W 15 19 8 10 1018.3 - 0.4
22/11:00am 12.8 10.3 8.4 74 2.2 W 11 15 6 8 1018.4 - 0.2
22/10:30am 12.6 10.1 8.1 74 2.2 WNW 11 15 6 8 1018.4 - 0.2
22/10:00am 11.9 9.8 8.2 78 1.8 WNW 9 13 5 7 1018.2 - 0.2
22/09:30am 11.5 9.4 8.2 80 1.6 NW 9 11 5 6 1018.0 - 0.2
22/09:00am 11.3 9.8 9.1 86 1.1 WNW 7 9 4 5 1017.3 1017.3 26.8
22/08:30am 9.4 9.2 9.0 97 0.2 CALM 0 7 0 4 1017.0 - 26.8
22/08:00am 9.5 8.0 9.1 97 0.2 SSW 7 15 4 8 1016.7 - 26.6
22/07:30am 8.9 7.2 8.3 96 0.3 E 7 9 4 5 1016.1 - 26.4
22/07:00am 9.7 7.4 8.9 95 0.4 SSE 11 15 6 8 1015.9 - 26.4
22/06:30am 9.9 8.4 9.3 96 0.3 S 7 11 4 6 1015.7 - 26.0
22/06:18am 10.1 8.3 9.5 96 0.3 S 9 13 5 7 1015.6 - 24.8
22/06:00am 9.8 8.5 9.2 96 0.3 E 6 11 3 6 1015.0 1015.0 24.0
22/05:30am 10.1 8.6 9.3 95 0.4 S 7 9 4 5 1014.6 - 24.0
22/05:00am 10.3 8.6 9.9 97 0.2 WSW 9 13 5 7 1014.4 - 23.8
22/04:30am 10.4 8.3 9.8 96 0.3 NW 11 15 6 8 1014.1 - 23.0
22/04:15am 10.4 9.7 10.0 97 0.2 NE 4 11 2 6 1013.8 - 22.2
22/04:00am 10.4 9.1 9.8 96 0.3 NNE 7 9 4 5 1013.2 - 21.8
22/03:49am 10.4 8.3 9.8 96 0.3 NNW 11 13 6 7 1013.2 - 21.6
22/03:30am 10.2 8.9 9.8 97 0.2 NE 7 9 4 5 1013.1 - 21.2
22/03:00am 10.2 8.1 9.6 96 0.3 ENE 11 13 6 7 1013.1 1013.1 21.0
22/02:30am 10.4 8.7 9.8 96 0.3 ESE 9 11 5 6 1012.8 - 20.6
22/02:00am 10.3 9.1 9.7 96 0.3 SE 6 9 3 5 1012.6 - 20.0
22/01:30am 10.7 9.0 9.7 93 0.5 W 9 15 5 8 1013.1 - 19.8
22/01:07am 11.5 6.9 10.9 96 0.3 WNW 26 56 14 30 1013.3 - 17.4
22/01:00am 11.3 9.8 10.7 96 0.3 NNE 9 11 5 6 1012.6 - 16.6
22/12:30am 11.1 9.6 10.5 96 0.3 NE 9 9 5 5 1012.4 - 16.4
22/12:00am 11.2 8.9 10.6 96 0.3 E 13 17 7 9 1012.5 1012.5 16.4
 
Date/Time
WST
Tmp

°C
App
Tmp
°C
Dew
Point
°C
Rel
Hum
%
Delta-T

°C
Wind Press
QNH
hPa
Press
MSL
hPa
Rain
since
9 am
mm
Dir
 
Spd
km/h
Gust
km/h
Spd
kts
Gust
kts
21/11:30pm 11.5 11.7 10.7 95 0.4 CALM 0 0 0 0 1013.3 - 16.0
21/11:00pm 11.8 8.0 11.2 96 0.3 W 22 33 12 18 1013.5 - 12.2

Latest Capital City Observations: Canberra | Sydney | Melbourne | Brisbane | Adelaide | Perth | Hobart | Darwin

Other Formats:

Comma delimited format used in spreadsheet applications
http://www.bom.gov.au/fwo/IDW60901/IDW60901.94610.axf

JavaScript Object Notation format (JSON) in row-major order
http://www.bom.gov.au/fwo/IDW60901/IDW60901.94610.json